Bao An Cheng 69 — BVBD5 — position and weather

sailwx.info

Track history (hours):
 
Tides and Currents Weather Stations Pressure Air Temp Water Temp Dewpoint Dewpoint Depression Visibility Wind Speed Wind Dir Waves Ship Positions

Bao An Cheng 69

Last reported at 2018-Apr-26 09:30 UTC. Time now 2018-Apr-26 09:51 UTC.
Position N 24°27' E 118°00'.

Length 121 m; draft 6.8 m.

Type: Cargo ship. MMSI: 412703090.

Date/timePositionNaut miles runAvg speedWind from/ knotsBaromVisibWave heightAir tempDewpointWater temp
2018-Apr-26 09:30N 24°27' E 118°00'0 0.0
2018-Apr-26 09:00N 24°27' E 118°00'0 0.0
2018-Apr-26 08:30N 24°27' E 118°00'0 0.0
2018-Apr-26 08:00N 24°27' E 118°00'0 0.0
2018-Apr-26 07:30N 24°27' E 118°00'0 0.2
2018-Apr-26 07:00N 24°27' E 118°00'3 6.6
2018-Apr-26 06:30N 24°26' E 118°04'4 8.0
2018-Apr-26 06:00N 24°23' E 118°07'4 8.3
2018-Apr-26 05:29N 24°21' E 118°11'4 8.8
2018-Apr-26 05:00N 24°20' E 118°16'5 9.4
2018-Apr-26 04:30N 24°21' E 118°21'5 9.9
2018-Apr-26 04:00N 24°22' E 118°26'510.3
2018-Apr-26 03:30N 24°24' E 118°31'510.6
2018-Apr-26 02:59N 24°27' E 118°36'23 1.2
2018-Apr-25 07:18N 24°49' E 118°44'  
2018-Apr-22 18:53N 24°49' E 118°44'5 0.4
2018-Apr-22 06:59N 24°48' E 118°48'0 0.0
2018-Apr-22 06:20N 24°48' E 118°48'0 0.0
2018-Apr-22 05:59N 24°48' E 118°48'0 0.0
2018-Apr-22 05:20N 24°48' E 118°48'0 0.0
2018-Apr-22 04:56N 24°48' E 118°48'14 3.8
2018-Apr-22 01:11N 24°34' E 118°43'1010.4
2018-Apr-22 00:11N 24°27' E 118°35'210.1
2018-Apr-22 00:00N 24°26' E 118°33'5 9.8
2018-Apr-21 23:29N 24°23' E 118°29'5 9.7
2018-Apr-21 23:00N 24°21' E 118°24'5 9.6
2018-Apr-21 22:29N 24°20' E 118°18'5 9.8
2018-Apr-21 22:00N 24°21' E 118°13'5 9.8
2018-Apr-21 21:30N 24°22' E 118°08'5 9.5
2018-Apr-21 21:00N 24°25' E 118°04'4 7.6
2018-Apr-21 20:30N 24°27' E 118°00'0 0.4
2018-Apr-21 19:53N 24°27' E 118°00'0 0.0
2018-Apr-21 19:29N 24°27' E 118°00'0 0.0
2018-Apr-21 18:59N 24°27' E 118°00'0 0.0
2018-Apr-21 18:26N 24°27' E 118°00'0 0.0
2018-Apr-21 17:53N 24°27' E 118°00'0 0.0
2018-Apr-21 16:44N 24°27' E 118°00'0 0.0
2018-Apr-21 16:29N 24°27' E 118°00'0 0.0
2018-Apr-21 15:59N 24°27' E 118°00'0 0.0
2018-Apr-21 15:26N 24°27' E 118°00'0 0.0
2018-Apr-21 14:56N 24°27' E 118°00'0 0.0
2018-Apr-21 14:26N 24°27' E 118°00'0 0.0
2018-Apr-21 12:22N 24°27' E 118°00'0 0.0
2018-Apr-21 11:55N 24°27' E 118°00'0 0.0
2018-Apr-21 11:25N 24°27' E 118°00'0 0.0
2018-Apr-21 10:49N 24°27' E 118°00'0 0.0
2018-Apr-21 10:28N 24°27' E 118°00'0 0.0
2018-Apr-21 09:39N 24°27' E 118°00'0 0.6
2018-Apr-21 09:29N 24°27' E 118°00'3 5.7
2018-Apr-21 09:00N 24°26' E 118°03'3 7.1
2018-Apr-21 08:30N 24°24' E 118°06'5 9.1
2018-Apr-21 08:00N 24°21' E 118°10'5 9.4
2018-Apr-21 07:30N 24°20' E 118°15'5 9.9
2018-Apr-21 07:00N 24°20' E 118°21'5 9.8
2018-Apr-21 06:30N 24°22' E 118°26'5 9.5
2018-Apr-21 06:00N 24°24' E 118°30'6 9.3
2018-Apr-21 05:23N 24°28' E 118°35'5 9.2
2018-Apr-21 04:53N 24°31' E 118°39'19 6.5
2018-Apr-21 01:59N 24°49' E 118°43'21 0.8
2018-Apr-20 01:03N 24°29' E 118°37'110.6
2018-Apr-20 01:00N 24°29' E 118°37'510.6
2018-Apr-20 00:30N 24°25' E 118°33'510.6
2018-Apr-20 00:01N 24°22' E 118°28'510.3
2018-Apr-19 23:30N 24°21' E 118°22'510.8
2018-Apr-19 23:00N 24°20' E 118°16'510.6
2018-Apr-19 22:31N 24°21' E 118°11'611.4
2018-Apr-19 22:00N 24°24' E 118°06'510.2
2018-Apr-19 21:30N 24°27' E 118°00'0 0.4
2018-Apr-19 20:58N 24°27' E 118°00'0 0.0
2018-Apr-19 20:28N 24°27' E 118°00'0 0.0
2018-Apr-19 19:58N 24°27' E 118°00'0 0.0
2018-Apr-19 19:28N 24°27' E 118°00'0 0.0
2018-Apr-19 18:58N 24°27' E 118°00'0 0.0
2018-Apr-19 18:28N 24°27' E 118°00'0 0.0
2018-Apr-19 17:58N 24°27' E 118°00'0 0.0
2018-Apr-19 17:28N 24°27' E 118°00'0 0.0
2018-Apr-19 17:00N 24°27' E 118°00'0 0.0
2018-Apr-19 16:29N 24°27' E 118°00'0 0.0
2018-Apr-19 15:59N 24°27' E 118°00'0 0.0
2018-Apr-19 15:29N 24°27' E 118°00'0 0.0
2018-Apr-19 14:59N 24°27' E 118°00'0 0.0
2018-Apr-19 14:29N 24°27' E 118°00'0 0.0
2018-Apr-19 13:56N 24°27' E 118°00'0 0.0
2018-Apr-19 13:30N 24°27' E 118°00'0 0.0
2018-Apr-19 13:00N 24°27' E 118°00'0 0.0
2018-Apr-19 12:30N 24°27' E 118°00'0 0.0
2018-Apr-19 12:00N 24°27' E 118°00'0 0.0
2018-Apr-19 11:30N 24°27' E 118°00'1 3.0
2018-Apr-19 11:00N 24°26' E 118°02'4 7.7
2018-Apr-19 10:30N 24°25' E 118°06'4 7.2
2018-Apr-19 10:01N 24°22' E 118°08'4 8.4
2018-Apr-19 09:30N 24°20' E 118°13'4 8.5
2018-Apr-19 09:00N 24°20' E 118°17'5 9.1
2018-Apr-19 08:30N 24°21' E 118°22'5 9.7
2018-Apr-19 08:00N 24°22' E 118°27'510.4
2018-Apr-19 07:30N 24°25' E 118°32'610.3
2018-Apr-19 06:58N 24°29' E 118°37'22 1.5
2018-Apr-18 16:43N 24°49' E 118°43'21 4.1
2018-Apr-18 11:30N 24°29' E 118°37'510.3
2018-Apr-18 11:00N 24°26' E 118°33'510.2
2018-Apr-18 10:30N 24°23' E 118°28'510.0
2018-Apr-18 10:00N 24°21' E 118°23'510.3
2018-Apr-18 09:30N 24°20' E 118°18'510.1
2018-Apr-18 09:00N 24°20' E 118°12'510.6
2018-Apr-18 08:30N 24°23' E 118°07'511.0
2018-Apr-18 08:00N 24°26' E 118°02'2 3.1
2018-Apr-18 07:30N 24°27' E 118°00'0 0.0
2018-Apr-18 06:56N 24°27' E 118°00'0 0.0
2018-Apr-18 06:26N 24°27' E 118°00'0 0.0
2018-Apr-18 05:59N 24°27' E 118°00'0 0.0
2018-Apr-18 05:26N 24°27' E 118°00'0 0.0
2018-Apr-18 04:59N 24°27' E 118°00'0 0.0
2018-Apr-18 04:29N 24°27' E 118°00'0 0.0
2018-Apr-18 03:59N 24°27' E 118°00'0 0.0
2018-Apr-18 03:29N 24°27' E 118°00'0 0.0
2018-Apr-18 02:59N 24°27' E 118°00'0 0.0
2018-Apr-18 02:29N 24°27' E 118°00'0 0.0
2018-Apr-18 01:59N 24°27' E 118°00'0 0.0
2018-Apr-18 01:29N 24°27' E 118°00'0 0.0
2018-Apr-18 00:59N 24°27' E 118°00'0 0.0
2018-Apr-18 00:29N 24°27' E 118°00'0 0.0
2018-Apr-17 23:59N 24°27' E 118°00'0 0.0
2018-Apr-17 23:29N 24°27' E 118°00'0 0.0
2018-Apr-17 22:59N 24°27' E 118°00'0 0.0
2018-Apr-17 22:29N 24°27' E 118°00'0 0.0
2018-Apr-17 21:59N 24°27' E 118°00'0 0.0
2018-Apr-17 21:26N 24°27' E 118°00'0 0.0
2018-Apr-17 20:59N 24°27' E 118°00'0 0.0
2018-Apr-17 20:29N 24°27' E 118°00'0 0.0
2018-Apr-17 19:59N 24°27' E 118°00'0 0.0
2018-Apr-17 19:29N 24°27' E 118°00'0 0.0
2018-Apr-17 18:59N 24°27' E 118°00'0 0.0
2018-Apr-17 18:27N 24°27' E 118°00'0 0.0
2018-Apr-17 18:00N 24°27' E 118°00'0 0.0
2018-Apr-17 17:30N 24°27' E 118°00'0 0.0
2018-Apr-17 17:00N 24°27' E 118°00'0 0.0
2018-Apr-17 16:30N 24°27' E 118°00'0 0.0
2018-Apr-17 16:00N 24°27' E 118°00'0 0.0
2018-Apr-17 15:30N 24°27' E 118°00'1 1.2
2018-Apr-17 15:00N 24°27' E 118°01'510.7
2018-Apr-17 14:30N 24°24' E 118°06'510.1
2018-Apr-17 14:00N 24°21' E 118°11'1 1.1
2018-Apr-17 13:29N 24°21' E 118°11'0 0.0
2018-Apr-17 12:59N 24°21' E 118°11'0 0.0
2018-Apr-17 12:29N 24°21' E 118°11'0 0.0
2018-Apr-17 11:59N 24°21' E 118°11'0 0.2
2018-Apr-17 11:29N 24°21' E 118°11'0 0.1
2018-Apr-17 10:59N 24°21' E 118°11'0 0.0
2018-Apr-17 10:29N 24°21' E 118°11'0 0.0
2018-Apr-17 09:59N 24°21' E 118°11'0 0.0
2018-Apr-17 09:29N 24°21' E 118°11'0 0.0
2018-Apr-17 08:59N 24°21' E 118°11'0 0.1
2018-Apr-17 08:29N 24°21' E 118°11'0 0.0
2018-Apr-17 07:59N 24°21' E 118°11'0 0.0
2018-Apr-17 07:29N 24°21' E 118°11'0 0.1
2018-Apr-17 06:59N 24°21' E 118°11'0 0.1
2018-Apr-17 06:29N 24°21' E 118°11'0 0.0
2018-Apr-17 05:59N 24°21' E 118°11'0 0.1
2018-Apr-17 05:29N 24°21' E 118°11'0 0.0
2018-Apr-17 04:59N 24°21' E 118°11'0 0.0
2018-Apr-17 04:29N 24°21' E 118°11'2 4.5
2018-Apr-17 04:00N 24°21' E 118°14'510.6
2018-Apr-17 03:30N 24°20' E 118°19'5 9.9
2018-Apr-17 03:00N 24°21' E 118°25'5 9.4
2018-Apr-17 02:30N 24°24' E 118°29'4 8.8
2018-Apr-17 02:00N 24°26' E 118°33'5 8.9
2018-Apr-17 01:29N 24°29' E 118°37'21 1.6
2018-Apr-16 12:22N 24°49' E 118°43'  
Track history (hours):
 
Tides and Currents Weather Stations Pressure Air Temp Water Temp Dewpoint Dewpoint Depression Visibility Wind Speed Wind Dir Waves Ship Positions

Bao An Cheng 69

Last reported at 2018-Apr-26 09:30 UTC. Time now 2018-Apr-26 09:51 UTC.
Position N 24°27' E 118°00'.

Length 121 m; draft 6.8 m.

Type: Cargo ship. MMSI: 412703090.

Date/timePositionNaut miles runAvg speedWind from/ knotsBaromVisibWave heightAir tempDewpointWater temp
2018-Apr-26 09:30N 24°27' E 118°00'0 0.0
2018-Apr-26 09:00N 24°27' E 118°00'0 0.0
2018-Apr-26 08:30N 24°27' E 118°00'0 0.0
2018-Apr-26 08:00N 24°27' E 118°00'0 0.0
2018-Apr-26 07:30N 24°27' E 118°00'0 0.2
2018-Apr-26 07:00N 24°27' E 118°00'3 6.6
2018-Apr-26 06:30N 24°26' E 118°04'4 8.0
2018-Apr-26 06:00N 24°23' E 118°07'4 8.3
2018-Apr-26 05:29N 24°21' E 118°11'4 8.8
2018-Apr-26 05:00N 24°20' E 118°16'5 9.4
2018-Apr-26 04:30N 24°21' E 118°21'5 9.9
2018-Apr-26 04:00N 24°22' E 118°26'510.3
2018-Apr-26 03:30N 24°24' E 118°31'510.6
2018-Apr-26 02:59N 24°27' E 118°36'23 1.2
2018-Apr-25 07:18N 24°49' E 118°44'  
2018-Apr-22 18:53N 24°49' E 118°44'5 0.4
2018-Apr-22 06:59N 24°48' E 118°48'0 0.0
2018-Apr-22 06:20N 24°48' E 118°48'0 0.0
2018-Apr-22 05:59N 24°48' E 118°48'0 0.0
2018-Apr-22 05:20N 24°48' E 118°48'0 0.0
2018-Apr-22 04:56N 24°48' E 118°48'14 3.8
2018-Apr-22 01:11N 24°34' E 118°43'1010.4
2018-Apr-22 00:11N 24°27' E 118°35'210.1
2018-Apr-22 00:00N 24°26' E 118°33'5 9.8
2018-Apr-21 23:29N 24°23' E 118°29'5 9.7
2018-Apr-21 23:00N 24°21' E 118°24'5 9.6
2018-Apr-21 22:29N 24°20' E 118°18'5 9.8
2018-Apr-21 22:00N 24°21' E 118°13'5 9.8
2018-Apr-21 21:30N 24°22' E 118°08'5 9.5
2018-Apr-21 21:00N 24°25' E 118°04'4 7.6
2018-Apr-21 20:30N 24°27' E 118°00'0 0.4
2018-Apr-21 19:53N 24°27' E 118°00'0 0.0
2018-Apr-21 19:29N 24°27' E 118°00'0 0.0
2018-Apr-21 18:59N 24°27' E 118°00'0 0.0
2018-Apr-21 18:26N 24°27' E 118°00'0 0.0
2018-Apr-21 17:53N 24°27' E 118°00'0 0.0
2018-Apr-21 16:44N 24°27' E 118°00'0 0.0
2018-Apr-21 16:29N 24°27' E 118°00'0 0.0
2018-Apr-21 15:59N 24°27' E 118°00'0 0.0
2018-Apr-21 15:26N 24°27' E 118°00'0 0.0
2018-Apr-21 14:56N 24°27' E 118°00'0 0.0
2018-Apr-21 14:26N 24°27' E 118°00'0 0.0
2018-Apr-21 12:22N 24°27' E 118°00'0 0.0
2018-Apr-21 11:55N 24°27' E 118°00'0 0.0
2018-Apr-21 11:25N 24°27' E 118°00'0 0.0
2018-Apr-21 10:49N 24°27' E 118°00'0 0.0
2018-Apr-21 10:28N 24°27' E 118°00'0 0.0
2018-Apr-21 09:39N 24°27' E 118°00'0 0.6
2018-Apr-21 09:29N 24°27' E 118°00'3 5.7
2018-Apr-21 09:00N 24°26' E 118°03'3 7.1
2018-Apr-21 08:30N 24°24' E 118°06'5 9.1
2018-Apr-21 08:00N 24°21' E 118°10'5 9.4
2018-Apr-21 07:30N 24°20' E 118°15'5 9.9
2018-Apr-21 07:00N 24°20' E 118°21'5 9.8
2018-Apr-21 06:30N 24°22' E 118°26'5 9.5
2018-Apr-21 06:00N 24°24' E 118°30'6 9.3
2018-Apr-21 05:23N 24°28' E 118°35'5 9.2
2018-Apr-21 04:53N 24°31' E 118°39'19 6.5
2018-Apr-21 01:59N 24°49' E 118°43'21 0.8
2018-Apr-20 01:03N 24°29' E 118°37'110.6
2018-Apr-20 01:00N 24°29' E 118°37'510.6
2018-Apr-20 00:30N 24°25' E 118°33'510.6
2018-Apr-20 00:01N 24°22' E 118°28'510.3
2018-Apr-19 23:30N 24°21' E 118°22'510.8
2018-Apr-19 23:00N 24°20' E 118°16'510.6
2018-Apr-19 22:31N 24°21' E 118°11'611.4
2018-Apr-19 22:00N 24°24' E 118°06'510.2
2018-Apr-19 21:30N 24°27' E 118°00'0 0.4
2018-Apr-19 20:58N 24°27' E 118°00'0 0.0
2018-Apr-19 20:28N 24°27' E 118°00'0 0.0
2018-Apr-19 19:58N 24°27' E 118°00'0 0.0
2018-Apr-19 19:28N 24°27' E 118°00'0 0.0
2018-Apr-19 18:58N 24°27' E 118°00'0 0.0
2018-Apr-19 18:28N 24°27' E 118°00'0 0.0
2018-Apr-19 17:58N 24°27' E 118°00'0 0.0
2018-Apr-19 17:28N 24°27' E 118°00'0 0.0
2018-Apr-19 17:00N 24°27' E 118°00'0 0.0
2018-Apr-19 16:29N 24°27' E 118°00'0 0.0
2018-Apr-19 15:59N 24°27' E 118°00'0 0.0
2018-Apr-19 15:29N 24°27' E 118°00'0 0.0
2018-Apr-19 14:59N 24°27' E 118°00'0 0.0
2018-Apr-19 14:29N 24°27' E 118°00'0 0.0
2018-Apr-19 13:56N 24°27' E 118°00'0 0.0
2018-Apr-19 13:30N 24°27' E 118°00'0 0.0
2018-Apr-19 13:00N 24°27' E 118°00'0 0.0
2018-Apr-19 12:30N 24°27' E 118°00'0 0.0
2018-Apr-19 12:00N 24°27' E 118°00'0 0.0
2018-Apr-19 11:30N 24°27' E 118°00'1 3.0
2018-Apr-19 11:00N 24°26' E 118°02'4 7.7
2018-Apr-19 10:30N 24°25' E 118°06'4 7.2
2018-Apr-19 10:01N 24°22' E 118°08'4 8.4
2018-Apr-19 09:30N 24°20' E 118°13'4 8.5
2018-Apr-19 09:00N 24°20' E 118°17'5 9.1
2018-Apr-19 08:30N 24°21' E 118°22'5 9.7
2018-Apr-19 08:00N 24°22' E 118°27'510.4
2018-Apr-19 07:30N 24°25' E 118°32'610.3
2018-Apr-19 06:58N 24°29' E 118°37'22 1.5
2018-Apr-18 16:43N 24°49' E 118°43'21 4.1
2018-Apr-18 11:30N 24°29' E 118°37'510.3
2018-Apr-18 11:00N 24°26' E 118°33'510.2
2018-Apr-18 10:30N 24°23' E 118°28'510.0
2018-Apr-18 10:00N 24°21' E 118°23'510.3
2018-Apr-18 09:30N 24°20' E 118°18'510.1
2018-Apr-18 09:00N 24°20' E 118°12'510.6
2018-Apr-18 08:30N 24°23' E 118°07'511.0
2018-Apr-18 08:00N 24°26' E 118°02'2 3.1
2018-Apr-18 07:30N 24°27' E 118°00'0 0.0
2018-Apr-18 06:56N 24°27' E 118°00'0 0.0
2018-Apr-18 06:26N 24°27' E 118°00'0 0.0
2018-Apr-18 05:59N 24°27' E 118°00'0 0.0
2018-Apr-18 05:26N 24°27' E 118°00'0 0.0
2018-Apr-18 04:59N 24°27' E 118°00'0 0.0
2018-Apr-18 04:29N 24°27' E 118°00'0 0.0
2018-Apr-18 03:59N 24°27' E 118°00'0 0.0
2018-Apr-18 03:29N 24°27' E 118°00'0 0.0
2018-Apr-18 02:59N 24°27' E 118°00'0 0.0
2018-Apr-18 02:29N 24°27' E 118°00'0 0.0
2018-Apr-18 01:59N 24°27' E 118°00'0 0.0
2018-Apr-18 01:29N 24°27' E 118°00'0 0.0
2018-Apr-18 00:59N 24°27' E 118°00'0 0.0
2018-Apr-18 00:29N 24°27' E 118°00'0 0.0
2018-Apr-17 23:59N 24°27' E 118°00'0 0.0
2018-Apr-17 23:29N 24°27' E 118°00'0 0.0
2018-Apr-17 22:59N 24°27' E 118°00'0 0.0
2018-Apr-17 22:29N 24°27' E 118°00'0 0.0
2018-Apr-17 21:59N 24°27' E 118°00'0 0.0
2018-Apr-17 21:26N 24°27' E 118°00'0 0.0
2018-Apr-17 20:59N 24°27' E 118°00'0 0.0
2018-Apr-17 20:29N 24°27' E 118°00'0 0.0
2018-Apr-17 19:59N 24°27' E 118°00'0 0.0
2018-Apr-17 19:29N 24°27' E 118°00'0 0.0
2018-Apr-17 18:59N 24°27' E 118°00'0 0.0
2018-Apr-17 18:27N 24°27' E 118°00'0 0.0
2018-Apr-17 18:00N 24°27' E 118°00'0 0.0
2018-Apr-17 17:30N 24°27' E 118°00'0 0.0
2018-Apr-17 17:00N 24°27' E 118°00'0 0.0
2018-Apr-17 16:30N 24°27' E 118°00'0 0.0
2018-Apr-17 16:00N 24°27' E 118°00'0 0.0
2018-Apr-17 15:30N 24°27' E 118°00'1 1.2
2018-Apr-17 15:00N 24°27' E 118°01'510.7
2018-Apr-17 14:30N 24°24' E 118°06'510.1
2018-Apr-17 14:00N 24°21' E 118°11'1 1.1
2018-Apr-17 13:29N 24°21' E 118°11'0 0.0
2018-Apr-17 12:59N 24°21' E 118°11'0 0.0
2018-Apr-17 12:29N 24°21' E 118°11'0 0.0
2018-Apr-17 11:59N 24°21' E 118°11'0 0.2
2018-Apr-17 11:29N 24°21' E 118°11'0 0.1
2018-Apr-17 10:59N 24°21' E 118°11'0 0.0
2018-Apr-17 10:29N 24°21' E 118°11'0 0.0
2018-Apr-17 09:59N 24°21' E 118°11'0 0.0
2018-Apr-17 09:29N 24°21' E 118°11'0 0.0
2018-Apr-17 08:59N 24°21' E 118°11'0 0.1
2018-Apr-17 08:29N 24°21' E 118°11'0 0.0
2018-Apr-17 07:59N 24°21' E 118°11'0 0.0
2018-Apr-17 07:29N 24°21' E 118°11'0 0.1
2018-Apr-17 06:59N 24°21' E 118°11'0 0.1
2018-Apr-17 06:29N 24°21' E 118°11'0 0.0
2018-Apr-17 05:59N 24°21' E 118°11'0 0.1
2018-Apr-17 05:29N 24°21' E 118°11'0 0.0
2018-Apr-17 04:59N 24°21' E 118°11'0 0.0
2018-Apr-17 04:29N 24°21' E 118°11'2 4.5
2018-Apr-17 04:00N 24°21' E 118°14'510.6
2018-Apr-17 03:30N 24°20' E 118°19'5 9.9
2018-Apr-17 03:00N 24°21' E 118°25'5 9.4
2018-Apr-17 02:30N 24°24' E 118°29'4 8.8
2018-Apr-17 02:00N 24°26' E 118°33'5 8.9
2018-Apr-17 01:29N 24°29' E 118°37'21 1.6
2018-Apr-16 12:22N 24°49' E 118°43'  

Dump ship's entire track history